Date,TemperatureHighF,TemperatureAvgF,TemperatureLowF,DewpointHighF,DewpointAvgF,DewpointLowF,HumidityHigh,HumidityAvg,HumidityLow,PressureMaxIn,PressureMinIn,WindSpeedMaxMPH,WindSpeedAvgMPH,GustSpeedMaxMPH,PrecipitationSumIn
2013-1-1,49.5,46.1,43.2,48.8,41.9,30.2,99,86,56,29.93,29.77,4,1,0,0.24
2013-1-2,48.7,43.9,39.4,48.5,43.2,39.1,99,97,88,30.04,29.76,5,1,0,0.33
2013-1-3,46.8,39.7,28.8,39.5,36.8,28.3,99,90,66,30.09,29.99,4,1,0,0.00
2013-1-4,50.2,37.8,23.9,33.2,26.5,21.7,99,69,33,30.13,30.00,6,1,0,0.00
2013-1-5,49.8,42.2,34.7,33.7,28.8,26.1,89,60,40,30.11,30.04,1,0,0,0.00
2013-1-6,51.3,41.9,35.2,40.5,37.6,33.2,99,86,58,30.06,29.85,3,0,0,0.01
2013-1-7,35.2,35.2,35.2,35.0,35.0,35.0,99,99,99,29.93,29.93,0,0,0,0.00
2013-1-8,45.7,36.6,35.2,41.5,36.0,35.0,99,98,84,30.20,29.93,1,0,0,0.00
2013-1-9,68.2,49.2,33.4,50.7,43.4,33.2,99,83,51,30.22,30.12,3,0,0,0.00
2013-1-10,46.8,44.6,41.2,46.1,43.4,40.2,99,96,86,30.24,30.18,2,0,0,0.00
2013-1-11,52.2,48.0,42.6,51.7,44.6,31.8,99,89,55,30.22,29.90,3,0,0,0.37
2013-1-12,69.3,57.0,51.1,64.0,55.8,50.8,99,96,79,29.92,29.85,2,0,0,0.01
2013-1-13,75.2,62.1,53.2,63.0,58.3,53.0,99,88,63,29.90,29.80,4,1,0,0.00
2013-1-14,69.8,62.5,54.1,64.5,60.3,53.9,99,93,78,29.92,29.83,4,1,0,0.00
2013-1-15,60.8,47.9,45.0,60.5,47.5,44.7,99,98,96,29.96,29.83,8,2,0,0.00
2013-1-16,50.4,47.0,45.0,50.1,46.7,44.7,99,99,99,29.83,29.74,4,1,0,0.14
2013-1-17,51.1,46.5,32.7,50.8,46.2,32.5,99,99,99,29.90,29.68,8,2,0,1.26
2013-1-18,46.4,36.3,27.7,34.6,29.8,22.3,99,81,40,30.31,29.92,7,1,0,0.41
2013-1-19,53.4,36.8,23.5,33.7,29.0,23.3,99,78,34,30.28,29.92,4,1,0,0.00
2013-1-20,65.1,44.9,30.7,38.1,33.9,30.5,99,72,32,29.92,29.74,4,1,0,0.00
2013-1-21,59.4,43.2,27.0,36.5,28.4,17.7,99,63,27,29.85,29.63,5,1,0,0.00
2013-1-22,41.0,35.4,30.6,20.4,10.6,1.1,48,36,21,30.01,29.73,6,2,0,0.00
2013-1-24,22.5,19.2,20.8,12.7,-0.4,-99.9,68,59,64,29.93,29.92,2,-111,0,0.00
2013-1-25,28.8,24.6,18.3,28.3,18.2,4.8,99,78,39,29.94,29.66,4,1,0,0.06
2013-1-26,38.3,31.1,27.9,34.0,30.1,27.4,99,96,74,29.89,29.68,4,1,0,0.01
2013-2-9,53.1,39.9,27.5,27.7,20.0,-99.9,95,54,27,29.99,29.91,6,-22,0,0.00
2013-2-10,53.1,38.4,22.3,41.1,25.6,20.3,99,66,28,30.06,29.79,4,1,0,0.00
2013-2-11,63.1,55.4,43.7,61.1,53.7,40.7,99,94,85,29.79,29.57,6,2,0,0.05
2013-2-12,63.3,54.9,46.8,55.4,37.9,26.4,97,59,26,29.81,29.63,5,1,0,0.00
2013-2-13,48.0,46.2,43.7,47.8,45.0,37.6,99,96,76,29.70,29.43,3,1,0,0.26
2013-2-14,53.6,41.0,30.0,37.7,33.9,29.8,99,79,47,29.93,29.66,4,1,0,0.00
2013-2-15,62.4,43.4,27.9,40.3,32.1,27.6,99,72,32,29.95,29.79,5,1,0,0.00
2013-2-17,37.2,31.0,21.9,19.6,12.7,7.3,89,51,29,30.13,29.95,10,2,0,0.00
2013-2-18,51.8,31.7,16.5,22.9,17.6,14.6,97,66,23,30.26,30.14,5,1,0,0.01
2013-2-19,44.6,42.8,40.6,43.3,42.2,40.4,99,98,95,29.78,29.77,0,0,0,0.00
2013-2-20,52.9,40.6,28.9,39.7,23.0,13.6,99,56,21,29.98,29.78,7,1,0,0.00
2013-2-21,53.2,39.5,23.7,27.4,21.8,16.6,98,55,24,30.09,29.94,5,1,0,0.00
2013-2-22,41.9,36.8,32.4,36.7,32.7,20.9,99,87,43,30.18,29.96,4,1,0,0.43
2013-2-23,43.7,40.5,36.5,43.4,40.2,36.2,99,99,99,29.95,29.63,4,1,0,1.02
2013-2-24,63.1,49.2,34.9,47.8,39.8,31.5,99,75,35,29.88,29.61,5,1,0,0.17
2013-2-25,44.8,37.4,30.7,33.7,25.6,21.6,99,64,42,30.07,29.88,6,2,0,0.00
2013-2-26,57.4,45.1,33.6,57.1,42.8,26.6,99,92,67,29.98,29.39,7,2,0,1.06
2013-2-27,61.3,49.2,37.8,45.6,40.8,36.3,99,77,41,29.64,29.46,4,2,0,0.00
2013-2-28,50.5,40.6,30.9,41.0,32.3,26.4,99,76,40,29.74,29.56,3,1,0,0.00
2013-3-1,52.9,39.6,27.0,32.1,28.7,26.5,99,69,38,29.80,29.72,5,1,0,0.00
2013-3-2,49.6,38.9,27.3,32.7,26.3,20.6,97,64,38,29.82,29.70,5,1,0,0.00
2013-3-3,47.3,37.0,27.1,23.4,20.1,16.4,81,52,34,29.88,29.74,6,2,0,0.00
2013-3-4,49.8,36.6,27.1,24.9,17.2,13.4,83,48,24,30.02,29.88,6,1,0,0.00
2013-3-5,52.7,41.5,28.2,45.6,36.1,24.6,99,83,41,29.99,29.49,4,1,0,0.35
2013-3-6,46.2,42.2,37.2,42.2,34.4,27.7,99,75,52,29.93,29.40,10,3,0,0.00
2013-3-7,51.3,42.2,30.7,31.9,29.6,27.0,94,63,44,30.15,29.93,10,2,0,0.00
2013-3-8,54.5,43.1,30.7,28.9,26.5,23.6,85,55,31,30.19,30.05,7,2,0,0.00
2013-3-9,64.0,44.8,28.6,33.9,29.3,26.2,96,60,25,30.23,30.12,5,1,0,0.00
2013-3-10,67.3,47.4,28.6,35.9,28.7,21.0,99,59,18,30.21,30.09,6,1,0,0.00
2013-3-11,70.3,53.6,34.0,52.5,44.0,31.3,94,72,48,30.13,29.83,7,2,0,0.00
2013-3-12,72.7,62.4,51.4,62.8,55.2,35.6,99,79,47,29.82,29.62,8,3,0,0.39
2013-3-13,57.9,43.9,33.8,35.6,32.4,26.7,93,66,30,29.94,29.82,4,1,0,0.00
2013-3-18,-200.0,0.0,200.0,-99.9,-99.9,-99.9,0,0,100,0.00,40.00,0,-999,0,0.00
2013-4-3,62.6,52.8,43.7,32.7,18.1,-99.9,65,30,21,30.18,30.08,5,-46,0,0.00
2013-4-4,52.5,44.4,40.3,40.7,30.3,24.1,88,58,42,30.25,30.09,8,2,0,0.08
2013-4-5,64.0,53.8,42.8,47.8,45.4,42.3,98,76,51,29.90,29.77,5,2,0,0.00
2013-4-6,48.9,39.9,36.3,41.6,36.9,29.1,99,90,46,30.12,29.90,4,1,0,0.00
2013-4-7,72.7,65.0,54.3,47.1,44.7,42.3,71,51,35,30.02,30.00,6,2,0,0.00
2013-4-8,56.7,50.8,47.3,47.2,46.2,45.3,94,84,70,30.02,30.00,0,0,0,0.00
2013-4-10,76.1,75.3,74.5,60.6,60.2,59.7,62,60,57,29.84,29.83,5,3,0,0.00
2013-4-11,75.7,73.6,71.8,65.9,63.2,59.9,80,70,58,29.84,29.68,7,2,0,0.00
2013-4-12,72.0,71.3,68.5,65.5,65.0,64.0,89,81,78,29.71,29.62,5,4,0,0.01
2013-4-15,67.1,66.2,65.5,57.7,57.4,57.0,76,73,71,30.08,30.03,2,1,0,0.00
2013-4-16,62.4,61.0,59.9,57.8,57.3,56.6,89,88,85,30.11,30.10,0,0,0,0.00
2013-4-23,51.1,50.1,49.1,48.8,48.0,47.4,94,93,91,30.04,30.02,0,0,0,0.00
2013-4-24,80.2,62.7,43.5,56.4,51.5,42.5,99,71,42,30.05,29.85,5,1,0,0.00
2013-4-25,73.9,63.2,55.6,56.8,48.7,40.5,93,61,39,30.13,29.90,6,1,0,0.00
2013-6-6,77.4,70.6,69.8,72.9,66.4,-99.9,98,92,83,29.93,29.88,5,-25,0,1.04
2013-6-7,79.3,71.8,68.9,76.1,70.9,68.6,99,97,88,30.01,29.62,7,1,0,3.87
2013-6-8,86.9,74.9,68.5,73.4,70.0,66.4,99,86,60,30.20,30.01,4,0,0,0.13
2013-6-9,90.5,74.1,65.7,74.2,69.1,64.8,98,86,57,30.23,30.18,2,0,0,0.00
2013-6-10,81.5,75.7,71.4,78.7,73.6,70.5,97,93,87,30.07,29.95,7,1,0,0.84
2013-6-11,71.6,71.6,71.6,70.7,70.7,70.7,97,97,97,29.99,29.99,0,0,0,0.00
2013-6-13,94.5,94.2,93.4,69.6,69.3,69.1,46,45,44,29.64,29.62,3,2,0,0.00
2013-6-16,90.7,75.2,62.4,68.9,63.0,58.2,89,68,47,30.16,30.03,4,1,0,0.00
2013-7-2,80.6,74.4,71.8,75.5,72.8,70.8,98,95,84,30.17,30.02,3,0,0,0.78
2013-7-3,88.5,78.1,73.0,78.3,75.0,72.4,99,91,72,30.20,30.13,6,1,0,0.46
2013-7-4,90.5,79.1,72.9,76.9,73.6,70.2,99,85,54,30.20,30.09,4,1,0,0.31
2013-7-5,92.3,80.3,71.1,76.4,73.3,69.9,98,81,55,30.17,30.03,4,0,0,0.00
2013-7-6,90.9,80.4,72.7,75.9,73.2,70.8,96,80,56,30.12,29.99,4,0,0,0.00
2013-7-7,74.3,72.8,71.6,70.8,69.9,69.3,93,91,89,30.05,30.04,0,0,0,0.00